sensor_id;sensor_type;location;lat;lon;timestamp;P1;durP1;ratioP1;P2;durP2;ratioP2
10491;SDS011;5293;51.464;-2.566;2023-04-05T00:00:43;14.37;;;7.00;;
10491;SDS011;5293;51.464;-2.566;2023-04-05T00:03:09;13.63;;;7.00;;
10491;SDS011;5293;51.464;-2.566;2023-04-05T00:05:35;13.37;;;6.43;;
10491;SDS011;5293;51.464;-2.566;2023-04-05T00:08:04;11.93;;;6.60;;
10491;SDS011;5293;51.464;-2.566;2023-04-05T00:10:37;14.03;;;6.37;;
10491;SDS011;5293;51.464;-2.566;2023-04-05T00:13:03;11.87;;;7.20;;
10491;SDS011;5293;51.464;-2.566;2023-04-05T00:15:29;11.03;;;6.53;;
10491;SDS011;5293;51.464;-2.566;2023-04-05T00:17:57;10.70;;;6.87;;
10491;SDS011;5293;51.464;-2.566;2023-04-05T00:20:24;12.23;;;6.63;;
10491;SDS011;5293;51.464;-2.566;2023-04-05T00:22:49;12.00;;;6.40;;
10491;SDS011;5293;51.464;-2.566;2023-04-05T00:25:15;11.47;;;6.70;;
10491;SDS011;5293;51.464;-2.566;2023-04-05T00:27:42;16.33;;;7.30;;
10491;SDS011;5293;51.464;-2.566;2023-04-05T00:30:08;12.77;;;7.00;;
10491;SDS011;5293;51.464;-2.566;2023-04-05T00:32:34;13.33;;;7.10;;
10491;SDS011;5293;51.464;-2.566;2023-04-05T00:35:00;12.47;;;6.73;;
10491;SDS011;5293;51.464;-2.566;2023-04-05T00:37:26;13.00;;;7.17;;
10491;SDS011;5293;51.464;-2.566;2023-04-05T00:39:51;14.17;;;7.67;;
10491;SDS011;5293;51.464;-2.566;2023-04-05T00:42:18;10.57;;;6.50;;
10491;SDS011;5293;51.464;-2.566;2023-04-05T00:44:43;11.60;;;6.57;;
10491;SDS011;5293;51.464;-2.566;2023-04-05T00:47:09;15.37;;;6.83;;
10491;SDS011;5293;51.464;-2.566;2023-04-05T00:49:35;9.20;;;6.70;;
10491;SDS011;5293;51.464;-2.566;2023-04-05T00:52:02;10.93;;;6.70;;
10491;SDS011;5293;51.464;-2.566;2023-04-05T00:54:28;11.53;;;7.03;;
10491;SDS011;5293;51.464;-2.566;2023-04-05T00:56:55;14.73;;;7.73;;
10491;SDS011;5293;51.464;-2.566;2023-04-05T00:59:21;12.63;;;7.67;;
10491;SDS011;5293;51.464;-2.566;2023-04-05T01:04:43;14.30;;;7.07;;
10491;SDS011;5293;51.464;-2.566;2023-04-05T01:10:08;15.27;;;6.77;;
10491;SDS011;5293;51.464;-2.566;2023-04-05T01:12:34;10.10;;;6.43;;
10491;SDS011;5293;51.464;-2.566;2023-04-05T01:15:01;10.40;;;6.63;;
10491;SDS011;5293;51.464;-2.566;2023-04-05T01:17:28;13.63;;;6.50;;
10491;SDS011;5293;51.464;-2.566;2023-04-05T01:20:01;12.47;;;6.97;;
10491;SDS011;5293;51.464;-2.566;2023-04-05T01:25:48;10.50;;;6.70;;
10491;SDS011;5293;51.464;-2.566;2023-04-05T01:28:37;12.57;;;6.83;;
10491;SDS011;5293;51.464;-2.566;2023-04-05T01:36:44;10.30;;;6.40;;
10491;SDS011;5293;51.464;-2.566;2023-04-05T01:39:20;12.47;;;6.50;;
10491;SDS011;5293;51.464;-2.566;2023-04-05T01:41:47;12.40;;;6.57;;
10491;SDS011;5293;51.464;-2.566;2023-04-05T01:44:13;13.07;;;6.37;;
10491;SDS011;5293;51.464;-2.566;2023-04-05T01:46:38;12.83;;;6.50;;
10491;SDS011;5293;51.464;-2.566;2023-04-05T01:49:04;13.60;;;6.60;;
10491;SDS011;5293;51.464;-2.566;2023-04-05T01:51:30;11.63;;;6.80;;
10491;SDS011;5293;51.464;-2.566;2023-04-05T01:53:56;13.13;;;6.63;;
10491;SDS011;5293;51.464;-2.566;2023-04-05T01:56:22;12.87;;;7.10;;
10491;SDS011;5293;51.464;-2.566;2023-04-05T01:58:48;13.57;;;6.83;;
10491;SDS011;5293;51.464;-2.566;2023-04-05T02:01:13;13.17;;;6.67;;
10491;SDS011;5293;51.464;-2.566;2023-04-05T02:03:39;12.57;;;6.90;;
10491;SDS011;5293;51.464;-2.566;2023-04-05T02:06:05;11.50;;;6.03;;
10491;SDS011;5293;51.464;-2.566;2023-04-05T02:08:30;11.87;;;6.63;;
10491;SDS011;5293;51.464;-2.566;2023-04-05T02:10:56;12.87;;;6.87;;
10491;SDS011;5293;51.464;-2.566;2023-04-05T02:13:22;9.83;;;6.97;;
10491;SDS011;5293;51.464;-2.566;2023-04-05T02:15:48;12.10;;;7.13;;
10491;SDS011;5293;51.464;-2.566;2023-04-05T02:18:14;12.30;;;7.13;;
10491;SDS011;5293;51.464;-2.566;2023-04-05T02:20:40;11.57;;;7.00;;
10491;SDS011;5293;51.464;-2.566;2023-04-05T02:23:06;12.47;;;7.60;;
10491;SDS011;5293;51.464;-2.566;2023-04-05T02:25:32;11.23;;;7.30;;
10491;SDS011;5293;51.464;-2.566;2023-04-05T02:27:58;16.43;;;7.30;;
10491;SDS011;5293;51.464;-2.566;2023-04-05T02:30:24;12.97;;;6.60;;
10491;SDS011;5293;51.464;-2.566;2023-04-05T02:32:53;13.70;;;7.00;;
10491;SDS011;5293;51.464;-2.566;2023-04-05T02:35:20;9.13;;;6.50;;
10491;SDS011;5293;51.464;-2.566;2023-04-05T02:37:46;11.70;;;6.30;;
10491;SDS011;5293;51.464;-2.566;2023-04-05T02:40:12;12.97;;;6.57;;
10491;SDS011;5293;51.464;-2.566;2023-04-05T02:42:39;9.97;;;6.70;;
10491;SDS011;5293;51.464;-2.566;2023-04-05T02:45:05;10.30;;;6.60;;
10491;SDS011;5293;51.464;-2.566;2023-04-05T02:47:32;18.77;;;11.87;;
10491;SDS011;5293;51.464;-2.566;2023-04-05T02:49:58;111.43;;;82.93;;
10491;SDS011;5293;51.464;-2.566;2023-04-05T02:52:24;210.27;;;148.87;;
10491;SDS011;5293;51.464;-2.566;2023-04-05T02:54:50;125.67;;;87.20;;
10491;SDS011;5293;51.464;-2.566;2023-04-05T02:57:15;153.27;;;106.97;;
10491;SDS011;5293;51.464;-2.566;2023-04-05T02:59:42;165.40;;;109.83;;
10491;SDS011;5293;51.464;-2.566;2023-04-05T03:02:08;152.67;;;109.70;;
10491;SDS011;5293;51.464;-2.566;2023-04-05T03:04:34;151.00;;;105.43;;
10491;SDS011;5293;51.464;-2.566;2023-04-05T03:07:01;106.83;;;79.67;;
10491;SDS011;5293;51.464;-2.566;2023-04-05T03:09:30;119.03;;;86.73;;
10491;SDS011;5293;51.464;-2.566;2023-04-05T03:12:03;106.93;;;78.20;;
10491;SDS011;5293;51.464;-2.566;2023-04-05T03:14:29;94.83;;;67.93;;
10491;SDS011;5293;51.464;-2.566;2023-04-05T03:16:55;84.73;;;62.57;;
10491;SDS011;5293;51.464;-2.566;2023-04-05T03:19:22;54.93;;;41.23;;
10491;SDS011;5293;51.464;-2.566;2023-04-05T03:21:50;44.10;;;34.37;;
10491;SDS011;5293;51.464;-2.566;2023-04-05T03:24:16;42.53;;;27.70;;
10491;SDS011;5293;51.464;-2.566;2023-04-05T03:26:42;26.97;;;20.67;;
10491;SDS011;5293;51.464;-2.566;2023-04-05T03:29:09;22.13;;;13.57;;
10491;SDS011;5293;51.464;-2.566;2023-04-05T03:31:35;18.83;;;12.07;;
10491;SDS011;5293;51.464;-2.566;2023-04-05T03:34:01;19.90;;;10.80;;
10491;SDS011;5293;51.464;-2.566;2023-04-05T03:36:26;14.50;;;9.37;;
10491;SDS011;5293;51.464;-2.566;2023-04-05T03:39:05;12.60;;;8.23;;
10491;SDS011;5293;51.464;-2.566;2023-04-05T03:41:35;17.93;;;8.03;;
10491;SDS011;5293;51.464;-2.566;2023-04-05T03:44:01;11.93;;;7.77;;
10491;SDS011;5293;51.464;-2.566;2023-04-05T03:46:27;11.77;;;7.33;;
10491;SDS011;5293;51.464;-2.566;2023-04-05T03:48:53;11.70;;;7.60;;
10491;SDS011;5293;51.464;-2.566;2023-04-05T03:51:20;13.53;;;7.17;;
10491;SDS011;5293;51.464;-2.566;2023-04-05T03:53:45;15.87;;;8.33;;
10491;SDS011;5293;51.464;-2.566;2023-04-05T03:56:11;15.70;;;8.83;;
10491;SDS011;5293;51.464;-2.566;2023-04-05T03:58:37;21.30;;;11.20;;
10491;SDS011;5293;51.464;-2.566;2023-04-05T04:01:03;17.63;;;11.83;;
10491;SDS011;5293;51.464;-2.566;2023-04-05T04:03:28;23.97;;;12.93;;
10491;SDS011;5293;51.464;-2.566;2023-04-05T04:05:55;20.93;;;13.83;;
10491;SDS011;5293;51.464;-2.566;2023-04-05T04:08:21;22.23;;;12.60;;
10491;SDS011;5293;51.464;-2.566;2023-04-05T04:10:47;17.10;;;10.97;;
10491;SDS011;5293;51.464;-2.566;2023-04-05T04:13:13;17.57;;;8.97;;
10491;SDS011;5293;51.464;-2.566;2023-04-05T04:15:39;14.63;;;8.63;;
10491;SDS011;5293;51.464;-2.566;2023-04-05T04:18:05;19.87;;;8.10;;
10491;SDS011;5293;51.464;-2.566;2023-04-05T04:20:31;12.10;;;7.70;;
10491;SDS011;5293;51.464;-2.566;2023-04-05T04:22:57;14.43;;;8.10;;
10491;SDS011;5293;51.464;-2.566;2023-04-05T04:25:22;12.13;;;7.10;;
10491;SDS011;5293;51.464;-2.566;2023-04-05T04:27:50;15.80;;;8.70;;
10491;SDS011;5293;51.464;-2.566;2023-04-05T04:30:16;16.77;;;8.37;;
10491;SDS011;5293;51.464;-2.566;2023-04-05T04:32:47;13.63;;;7.90;;
10491;SDS011;5293;51.464;-2.566;2023-04-05T04:35:19;14.40;;;8.73;;
10491;SDS011;5293;51.464;-2.566;2023-04-05T04:37:55;15.03;;;8.50;;
10491;SDS011;5293;51.464;-2.566;2023-04-05T04:40:43;14.80;;;8.67;;
10491;SDS011;5293;51.464;-2.566;2023-04-05T04:43:15;16.30;;;8.83;;
10491;SDS011;5293;51.464;-2.566;2023-04-05T04:45:51;18.93;;;8.97;;
10491;SDS011;5293;51.464;-2.566;2023-04-05T04:48:19;15.57;;;8.60;;
10491;SDS011;5293;51.464;-2.566;2023-04-05T04:50:45;13.03;;;8.93;;
10491;SDS011;5293;51.464;-2.566;2023-04-05T04:53:12;18.43;;;8.60;;
10491;SDS011;5293;51.464;-2.566;2023-04-05T04:55:41;20.20;;;8.47;;
10491;SDS011;5293;51.464;-2.566;2023-04-05T04:58:11;15.70;;;9.03;;
10491;SDS011;5293;51.464;-2.566;2023-04-05T05:00:38;15.30;;;8.83;;
10491;SDS011;5293;51.464;-2.566;2023-04-05T05:03:06;15.50;;;8.77;;
10491;SDS011;5293;51.464;-2.566;2023-04-05T05:05:32;14.50;;;8.77;;
10491;SDS011;5293;51.464;-2.566;2023-04-05T05:07:58;16.20;;;9.23;;
10491;SDS011;5293;51.464;-2.566;2023-04-05T05:10:24;15.73;;;9.23;;
10491;SDS011;5293;51.464;-2.566;2023-04-05T05:12:50;15.10;;;8.53;;
10491;SDS011;5293;51.464;-2.566;2023-04-05T05:15:16;13.80;;;8.50;;
10491;SDS011;5293;51.464;-2.566;2023-04-05T05:17:41;19.87;;;9.80;;
10491;SDS011;5293;51.464;-2.566;2023-04-05T05:20:08;13.20;;;8.97;;
10491;SDS011;5293;51.464;-2.566;2023-04-05T05:22:38;19.17;;;9.57;;
10491;SDS011;5293;51.464;-2.566;2023-04-05T05:25:04;16.33;;;8.93;;
10491;SDS011;5293;51.464;-2.566;2023-04-05T05:27:30;14.13;;;9.40;;
10491;SDS011;5293;51.464;-2.566;2023-04-05T05:29:58;17.93;;;9.50;;
10491;SDS011;5293;51.464;-2.566;2023-04-05T05:32:23;14.67;;;9.03;;
10491;SDS011;5293;51.464;-2.566;2023-04-05T05:34:49;14.53;;;9.50;;
10491;SDS011;5293;51.464;-2.566;2023-04-05T05:37:15;17.07;;;9.53;;
10491;SDS011;5293;51.464;-2.566;2023-04-05T05:39:41;17.73;;;9.87;;
10491;SDS011;5293;51.464;-2.566;2023-04-05T05:42:08;21.30;;;8.87;;
10491;SDS011;5293;51.464;-2.566;2023-04-05T05:44:34;15.03;;;9.60;;
10491;SDS011;5293;51.464;-2.566;2023-04-05T05:47:00;16.50;;;9.70;;
10491;SDS011;5293;51.464;-2.566;2023-04-05T05:49:27;17.63;;;10.47;;
10491;SDS011;5293;51.464;-2.566;2023-04-05T05:51:52;19.27;;;10.13;;
10491;SDS011;5293;51.464;-2.566;2023-04-05T05:54:18;18.03;;;10.33;;
10491;SDS011;5293;51.464;-2.566;2023-04-05T05:56:44;19.63;;;10.60;;
10491;SDS011;5293;51.464;-2.566;2023-04-05T05:59:10;16.10;;;9.97;;
10491;SDS011;5293;51.464;-2.566;2023-04-05T06:01:36;19.27;;;9.90;;
10491;SDS011;5293;51.464;-2.566;2023-04-05T06:04:02;18.33;;;10.93;;
10491;SDS011;5293;51.464;-2.566;2023-04-05T06:06:29;23.20;;;10.77;;
10491;SDS011;5293;51.464;-2.566;2023-04-05T06:08:54;17.10;;;10.33;;
10491;SDS011;5293;51.464;-2.566;2023-04-05T06:11:20;17.10;;;11.07;;
10491;SDS011;5293;51.464;-2.566;2023-04-05T06:13:50;16.87;;;10.37;;
10491;SDS011;5293;51.464;-2.566;2023-04-05T06:16:16;15.57;;;10.00;;
10491;SDS011;5293;51.464;-2.566;2023-04-05T06:18:42;17.47;;;10.97;;
10491;SDS011;5293;51.464;-2.566;2023-04-05T06:21:08;19.57;;;11.13;;
10491;SDS011;5293;51.464;-2.566;2023-04-05T06:23:34;17.23;;;11.20;;
10491;SDS011;5293;51.464;-2.566;2023-04-05T06:26:00;16.67;;;10.20;;
10491;SDS011;5293;51.464;-2.566;2023-04-05T06:28:26;20.23;;;10.90;;
10491;SDS011;5293;51.464;-2.566;2023-04-05T06:30:54;19.13;;;10.57;;
10491;SDS011;5293;51.464;-2.566;2023-04-05T06:33:21;16.97;;;10.53;;
10491;SDS011;5293;51.464;-2.566;2023-04-05T06:35:47;18.30;;;10.63;;
10491;SDS011;5293;51.464;-2.566;2023-04-05T06:38:13;19.40;;;10.27;;
10491;SDS011;5293;51.464;-2.566;2023-04-05T06:40:38;17.63;;;11.30;;
10491;SDS011;5293;51.464;-2.566;2023-04-05T06:43:04;17.77;;;10.47;;
10491;SDS011;5293;51.464;-2.566;2023-04-05T06:45:30;23.13;;;11.53;;
10491;SDS011;5293;51.464;-2.566;2023-04-05T06:47:56;19.07;;;11.83;;
10491;SDS011;5293;51.464;-2.566;2023-04-05T06:50:21;17.47;;;10.77;;
10491;SDS011;5293;51.464;-2.566;2023-04-05T06:52:47;18.63;;;11.53;;
10491;SDS011;5293;51.464;-2.566;2023-04-05T06:55:13;19.47;;;10.63;;
10491;SDS011;5293;51.464;-2.566;2023-04-05T06:57:38;20.87;;;11.97;;
10491;SDS011;5293;51.464;-2.566;2023-04-05T07:00:04;18.30;;;12.40;;
10491;SDS011;5293;51.464;-2.566;2023-04-05T07:02:37;20.23;;;12.90;;
10491;SDS011;5293;51.464;-2.566;2023-04-05T07:05:03;18.67;;;11.60;;
10491;SDS011;5293;51.464;-2.566;2023-04-05T07:07:30;23.37;;;12.83;;
10491;SDS011;5293;51.464;-2.566;2023-04-05T07:09:57;22.67;;;12.07;;
10491;SDS011;5293;51.464;-2.566;2023-04-05T07:12:23;21.63;;;12.13;;
10491;SDS011;5293;51.464;-2.566;2023-04-05T07:14:48;17.70;;;12.43;;
10491;SDS011;5293;51.464;-2.566;2023-04-05T07:17:14;19.80;;;11.93;;
10491;SDS011;5293;51.464;-2.566;2023-04-05T07:19:40;23.73;;;13.00;;
10491;SDS011;5293;51.464;-2.566;2023-04-05T07:22:05;19.23;;;12.20;;
10491;SDS011;5293;51.464;-2.566;2023-04-05T07:24:31;19.90;;;12.17;;
10491;SDS011;5293;51.464;-2.566;2023-04-05T07:26:57;21.40;;;11.83;;
10491;SDS011;5293;51.464;-2.566;2023-04-05T07:29:22;22.07;;;12.30;;
10491;SDS011;5293;51.464;-2.566;2023-04-05T07:31:48;22.20;;;12.60;;
10491;SDS011;5293;51.464;-2.566;2023-04-05T07:34:14;24.77;;;13.17;;
10491;SDS011;5293;51.464;-2.566;2023-04-05T07:36:40;19.93;;;12.83;;
10491;SDS011;5293;51.464;-2.566;2023-04-05T07:39:05;22.63;;;13.13;;
10491;SDS011;5293;51.464;-2.566;2023-04-05T07:41:31;22.07;;;12.67;;
10491;SDS011;5293;51.464;-2.566;2023-04-05T07:43:59;28.00;;;13.27;;
10491;SDS011;5293;51.464;-2.566;2023-04-05T07:46:25;17.03;;;12.10;;
10491;SDS011;5293;51.464;-2.566;2023-04-05T07:48:51;18.47;;;12.50;;
10491;SDS011;5293;51.464;-2.566;2023-04-05T07:51:17;20.10;;;13.10;;
10491;SDS011;5293;51.464;-2.566;2023-04-05T07:53:43;25.23;;;12.67;;
10491;SDS011;5293;51.464;-2.566;2023-04-05T07:56:09;22.90;;;12.83;;
10491;SDS011;5293;51.464;-2.566;2023-04-05T07:58:36;21.80;;;13.43;;
10491;SDS011;5293;51.464;-2.566;2023-04-05T08:01:06;20.70;;;12.77;;
10491;SDS011;5293;51.464;-2.566;2023-04-05T08:03:34;23.37;;;12.83;;
10491;SDS011;5293;51.464;-2.566;2023-04-05T08:08:39;20.77;;;12.60;;
10491;SDS011;5293;51.464;-2.566;2023-04-05T08:11:05;20.03;;;13.03;;
10491;SDS011;5293;51.464;-2.566;2023-04-05T08:13:32;20.17;;;12.93;;
10491;SDS011;5293;51.464;-2.566;2023-04-05T08:15:58;22.03;;;12.53;;
10491;SDS011;5293;51.464;-2.566;2023-04-05T08:18:27;22.57;;;13.10;;
10491;SDS011;5293;51.464;-2.566;2023-04-05T08:20:53;20.27;;;12.93;;
10491;SDS011;5293;51.464;-2.566;2023-04-05T08:23:19;23.63;;;14.03;;
10491;SDS011;5293;51.464;-2.566;2023-04-05T08:25:45;28.27;;;14.77;;
10491;SDS011;5293;51.464;-2.566;2023-04-05T08:28:11;20.83;;;13.57;;
10491;SDS011;5293;51.464;-2.566;2023-04-05T08:30:38;23.17;;;13.33;;
10491;SDS011;5293;51.464;-2.566;2023-04-05T08:33:04;25.63;;;13.90;;
10491;SDS011;5293;51.464;-2.566;2023-04-05T08:35:30;21.70;;;13.37;;
10491;SDS011;5293;51.464;-2.566;2023-04-05T08:37:56;22.20;;;12.90;;
10491;SDS011;5293;51.464;-2.566;2023-04-05T08:40:40;18.90;;;13.40;;
10491;SDS011;5293;51.464;-2.566;2023-04-05T08:43:17;20.13;;;12.73;;
10491;SDS011;5293;51.464;-2.566;2023-04-05T08:46:01;20.37;;;12.67;;
10491;SDS011;5293;51.464;-2.566;2023-04-05T08:48:31;22.30;;;13.10;;
10491;SDS011;5293;51.464;-2.566;2023-04-05T08:51:00;22.70;;;13.27;;
10491;SDS011;5293;51.464;-2.566;2023-04-05T08:53:25;21.20;;;12.90;;
10491;SDS011;5293;51.464;-2.566;2023-04-05T08:55:53;20.43;;;13.23;;
10491;SDS011;5293;51.464;-2.566;2023-04-05T08:58:20;22.67;;;13.87;;
10491;SDS011;5293;51.464;-2.566;2023-04-05T09:00:48;20.43;;;12.80;;
10491;SDS011;5293;51.464;-2.566;2023-04-05T09:03:16;21.93;;;13.97;;
10491;SDS011;5293;51.464;-2.566;2023-04-05T09:05:51;22.47;;;13.40;;
10491;SDS011;5293;51.464;-2.566;2023-04-05T09:08:17;21.10;;;13.33;;
10491;SDS011;5293;51.464;-2.566;2023-04-05T09:10:45;24.50;;;13.90;;
10491;SDS011;5293;51.464;-2.566;2023-04-05T09:13:15;21.67;;;13.17;;
10491;SDS011;5293;51.464;-2.566;2023-04-05T09:15:41;24.43;;;13.83;;
10491;SDS011;5293;51.464;-2.566;2023-04-05T09:18:07;22.57;;;13.80;;
10491;SDS011;5293;51.464;-2.566;2023-04-05T09:20:33;21.77;;;13.77;;
10491;SDS011;5293;51.464;-2.566;2023-04-05T09:22:59;19.47;;;12.70;;
10491;SDS011;5293;51.464;-2.566;2023-04-05T09:27:56;23.83;;;13.87;;
10491;SDS011;5293;51.464;-2.566;2023-04-05T09:30:23;22.63;;;13.77;;
10491;SDS011;5293;51.464;-2.566;2023-04-05T09:32:50;23.53;;;13.93;;
10491;SDS011;5293;51.464;-2.566;2023-04-05T09:35:20;22.07;;;13.53;;
10491;SDS011;5293;51.464;-2.566;2023-04-05T09:37:51;23.13;;;13.57;;
10491;SDS011;5293;51.464;-2.566;2023-04-05T09:40:18;20.73;;;13.63;;
10491;SDS011;5293;51.464;-2.566;2023-04-05T09:42:45;19.83;;;13.40;;
10491;SDS011;5293;51.464;-2.566;2023-04-05T09:45:11;24.23;;;13.87;;
10491;SDS011;5293;51.464;-2.566;2023-04-05T09:47:37;22.07;;;13.77;;
10491;SDS011;5293;51.464;-2.566;2023-04-05T09:50:08;23.33;;;13.97;;
10491;SDS011;5293;51.464;-2.566;2023-04-05T09:52:43;21.93;;;12.83;;
10491;SDS011;5293;51.464;-2.566;2023-04-05T09:55:09;23.87;;;13.60;;
10491;SDS011;5293;51.464;-2.566;2023-04-05T09:57:36;22.77;;;12.93;;
10491;SDS011;5293;51.464;-2.566;2023-04-05T10:00:04;23.33;;;14.10;;
10491;SDS011;5293;51.464;-2.566;2023-04-05T10:02:37;34.80;;;18.80;;
10491;SDS011;5293;51.464;-2.566;2023-04-05T10:05:10;21.00;;;13.67;;
10491;SDS011;5293;51.464;-2.566;2023-04-05T10:07:41;27.23;;;14.93;;
10491;SDS011;5293;51.464;-2.566;2023-04-05T10:10:07;25.03;;;14.67;;
10491;SDS011;5293;51.464;-2.566;2023-04-05T10:12:36;26.60;;;14.80;;
10491;SDS011;5293;51.464;-2.566;2023-04-05T10:15:03;27.73;;;15.57;;
10491;SDS011;5293;51.464;-2.566;2023-04-05T10:17:33;22.67;;;14.83;;
10491;SDS011;5293;51.464;-2.566;2023-04-05T10:20:24;26.40;;;15.03;;
10491;SDS011;5293;51.464;-2.566;2023-04-05T10:23:07;22.17;;;13.67;;
10491;SDS011;5293;51.464;-2.566;2023-04-05T10:28:10;27.93;;;15.00;;
10491;SDS011;5293;51.464;-2.566;2023-04-05T10:30:39;25.23;;;14.87;;
10491;SDS011;5293;51.464;-2.566;2023-04-05T10:33:21;22.07;;;14.63;;
10491;SDS011;5293;51.464;-2.566;2023-04-05T10:41:29;24.63;;;14.70;;
10491;SDS011;5293;51.464;-2.566;2023-04-05T10:43:58;22.03;;;14.10;;
10491;SDS011;5293;51.464;-2.566;2023-04-05T10:46:26;25.17;;;14.77;;
10491;SDS011;5293;51.464;-2.566;2023-04-05T10:49:01;23.67;;;14.47;;
10491;SDS011;5293;51.464;-2.566;2023-04-05T10:51:33;26.30;;;15.17;;
10491;SDS011;5293;51.464;-2.566;2023-04-05T10:53:59;24.03;;;14.63;;
10491;SDS011;5293;51.464;-2.566;2023-04-05T10:56:26;23.33;;;14.60;;
10491;SDS011;5293;51.464;-2.566;2023-04-05T10:58:52;21.10;;;13.90;;
10491;SDS011;5293;51.464;-2.566;2023-04-05T11:01:19;23.70;;;15.17;;
10491;SDS011;5293;51.464;-2.566;2023-04-05T11:03:47;22.57;;;14.70;;
10491;SDS011;5293;51.464;-2.566;2023-04-05T11:06:17;22.43;;;15.37;;
10491;SDS011;5293;51.464;-2.566;2023-04-05T11:08:48;24.63;;;16.20;;
10491;SDS011;5293;51.464;-2.566;2023-04-05T11:11:17;21.63;;;15.20;;
10491;SDS011;5293;51.464;-2.566;2023-04-05T11:13:52;24.07;;;16.87;;
10491;SDS011;5293;51.464;-2.566;2023-04-05T11:16:19;26.60;;;16.53;;
10491;SDS011;5293;51.464;-2.566;2023-04-05T11:18:46;26.30;;;16.93;;
10491;SDS011;5293;51.464;-2.566;2023-04-05T11:21:23;25.10;;;16.50;;
10491;SDS011;5293;51.464;-2.566;2023-04-05T11:26:51;24.07;;;15.67;;
10491;SDS011;5293;51.464;-2.566;2023-04-05T11:30:03;23.47;;;14.30;;
10491;SDS011;5293;51.464;-2.566;2023-04-05T11:32:11;19.70;;;12.90;;
10491;SDS011;5293;51.464;-2.566;2023-04-05T11:34:37;19.83;;;13.30;;
10491;SDS011;5293;51.464;-2.566;2023-04-05T11:37:06;18.13;;;13.00;;
10491;SDS011;5293;51.464;-2.566;2023-04-05T11:39:32;20.87;;;12.40;;
10491;SDS011;5293;51.464;-2.566;2023-04-05T11:42:02;21.50;;;12.80;;
10491;SDS011;5293;51.464;-2.566;2023-04-05T11:44:29;19.20;;;13.90;;
10491;SDS011;5293;51.464;-2.566;2023-04-05T11:47:12;24.53;;;14.13;;
10491;SDS011;5293;51.464;-2.566;2023-04-05T11:49:40;19.47;;;13.60;;
10491;SDS011;5293;51.464;-2.566;2023-04-05T11:52:24;21.33;;;13.47;;
10491;SDS011;5293;51.464;-2.566;2023-04-05T11:54:51;21.07;;;14.20;;
10491;SDS011;5293;51.464;-2.566;2023-04-05T11:57:20;21.07;;;14.47;;
10491;SDS011;5293;51.464;-2.566;2023-04-05T11:59:50;21.77;;;14.80;;
10491;SDS011;5293;51.464;-2.566;2023-04-05T12:02:17;26.40;;;15.23;;
10491;SDS011;5293;51.464;-2.566;2023-04-05T12:04:43;24.10;;;13.63;;
10491;SDS011;5293;51.464;-2.566;2023-04-05T12:07:10;22.00;;;14.90;;
10491;SDS011;5293;51.464;-2.566;2023-04-05T12:09:55;21.77;;;13.57;;
10491;SDS011;5293;51.464;-2.566;2023-04-05T12:12:40;25.43;;;13.40;;
10491;SDS011;5293;51.464;-2.566;2023-04-05T12:15:08;17.93;;;12.73;;
10491;SDS011;5293;51.464;-2.566;2023-04-05T12:17:49;19.13;;;12.07;;
10491;SDS011;5293;51.464;-2.566;2023-04-05T12:20:16;17.73;;;12.47;;
10491;SDS011;5293;51.464;-2.566;2023-04-05T12:22:48;17.80;;;12.10;;
10491;SDS011;5293;51.464;-2.566;2023-04-05T12:25:15;25.10;;;14.70;;
10491;SDS011;5293;51.464;-2.566;2023-04-05T12:27:42;20.87;;;13.47;;
10491;SDS011;5293;51.464;-2.566;2023-04-05T12:32:36;21.20;;;11.70;;
10491;SDS011;5293;51.464;-2.566;2023-04-05T12:35:08;20.07;;;12.13;;
10491;SDS011;5293;51.464;-2.566;2023-04-05T12:37:40;15.50;;;11.20;;
10491;SDS011;5293;51.464;-2.566;2023-04-05T12:40:06;17.33;;;11.33;;
10491;SDS011;5293;51.464;-2.566;2023-04-05T12:42:34;17.83;;;12.27;;
10491;SDS011;5293;51.464;-2.566;2023-04-05T12:45:05;19.37;;;12.50;;
10491;SDS011;5293;51.464;-2.566;2023-04-05T12:47:34;17.90;;;12.60;;
10491;SDS011;5293;51.464;-2.566;2023-04-05T12:50:10;18.47;;;12.50;;
10491;SDS011;5293;51.464;-2.566;2023-04-05T12:52:36;19.03;;;11.13;;
10491;SDS011;5293;51.464;-2.566;2023-04-05T12:55:02;14.43;;;10.17;;
10491;SDS011;5293;51.464;-2.566;2023-04-05T12:57:29;17.13;;;10.70;;
10491;SDS011;5293;51.464;-2.566;2023-04-05T12:59:55;14.37;;;10.03;;
10491;SDS011;5293;51.464;-2.566;2023-04-05T13:02:21;14.27;;;9.67;;
10491;SDS011;5293;51.464;-2.566;2023-04-05T13:04:47;12.77;;;9.97;;
10491;SDS011;5293;51.464;-2.566;2023-04-05T13:07:13;12.73;;;9.17;;
10491;SDS011;5293;51.464;-2.566;2023-04-05T13:09:38;14.90;;;8.60;;
10491;SDS011;5293;51.464;-2.566;2023-04-05T13:12:04;16.50;;;9.40;;
10491;SDS011;5293;51.464;-2.566;2023-04-05T13:14:30;15.27;;;9.33;;
10491;SDS011;5293;51.464;-2.566;2023-04-05T13:16:56;16.40;;;10.53;;
10491;SDS011;5293;51.464;-2.566;2023-04-05T13:19:21;15.63;;;9.53;;
10491;SDS011;5293;51.464;-2.566;2023-04-05T13:21:47;13.07;;;9.73;;
10491;SDS011;5293;51.464;-2.566;2023-04-05T13:24:13;10.40;;;8.50;;
10491;SDS011;5293;51.464;-2.566;2023-04-05T13:26:39;12.80;;;9.00;;
10491;SDS011;5293;51.464;-2.566;2023-04-05T13:29:05;15.40;;;9.27;;
10491;SDS011;5293;51.464;-2.566;2023-04-05T13:31:32;13.63;;;8.63;;
10491;SDS011;5293;51.464;-2.566;2023-04-05T13:33:57;17.33;;;10.10;;
10491;SDS011;5293;51.464;-2.566;2023-04-05T13:36:23;12.30;;;8.87;;
10491;SDS011;5293;51.464;-2.566;2023-04-05T13:38:49;14.30;;;9.13;;
10491;SDS011;5293;51.464;-2.566;2023-04-05T13:41:14;14.20;;;9.90;;
10491;SDS011;5293;51.464;-2.566;2023-04-05T13:43:40;13.07;;;9.03;;
10491;SDS011;5293;51.464;-2.566;2023-04-05T13:46:05;12.27;;;9.83;;
10491;SDS011;5293;51.464;-2.566;2023-04-05T13:48:31;12.20;;;9.33;;
10491;SDS011;5293;51.464;-2.566;2023-04-05T13:50:57;14.33;;;10.13;;
10491;SDS011;5293;51.464;-2.566;2023-04-05T13:53:22;14.50;;;9.60;;
10491;SDS011;5293;51.464;-2.566;2023-04-05T13:55:48;15.10;;;10.20;;
10491;SDS011;5293;51.464;-2.566;2023-04-05T13:58:14;14.47;;;9.77;;
10491;SDS011;5293;51.464;-2.566;2023-04-05T14:00:40;13.80;;;9.93;;
10491;SDS011;5293;51.464;-2.566;2023-04-05T14:03:06;13.80;;;9.43;;
10491;SDS011;5293;51.464;-2.566;2023-04-05T14:05:31;14.70;;;10.00;;
10491;SDS011;5293;51.464;-2.566;2023-04-05T14:07:57;13.20;;;9.97;;
10491;SDS011;5293;51.464;-2.566;2023-04-05T14:10:22;12.10;;;9.20;;
10491;SDS011;5293;51.464;-2.566;2023-04-05T14:12:48;15.30;;;9.87;;
10491;SDS011;5293;51.464;-2.566;2023-04-05T14:15:14;14.53;;;10.17;;
10491;SDS011;5293;51.464;-2.566;2023-04-05T14:17:39;14.57;;;10.00;;
10491;SDS011;5293;51.464;-2.566;2023-04-05T14:20:05;15.23;;;11.17;;
10491;SDS011;5293;51.464;-2.566;2023-04-05T14:22:32;16.17;;;11.47;;
10491;SDS011;5293;51.464;-2.566;2023-04-05T14:24:57;15.97;;;11.93;;
10491;SDS011;5293;51.464;-2.566;2023-04-05T14:27:23;16.07;;;11.23;;
10491;SDS011;5293;51.464;-2.566;2023-04-05T14:29:52;12.53;;;10.10;;
10491;SDS011;5293;51.464;-2.566;2023-04-05T14:32:21;15.90;;;11.53;;
10491;SDS011;5293;51.464;-2.566;2023-04-05T14:34:49;16.60;;;11.77;;
10491;SDS011;5293;51.464;-2.566;2023-04-05T14:37:15;16.17;;;11.20;;
10491;SDS011;5293;51.464;-2.566;2023-04-05T14:39:42;17.97;;;11.63;;
10491;SDS011;5293;51.464;-2.566;2023-04-05T14:42:08;15.33;;;11.40;;
10491;SDS011;5293;51.464;-2.566;2023-04-05T14:44:34;16.20;;;12.00;;
10491;SDS011;5293;51.464;-2.566;2023-04-05T14:46:59;16.63;;;10.93;;
10491;SDS011;5293;51.464;-2.566;2023-04-05T14:49:25;17.07;;;11.70;;
10491;SDS011;5293;51.464;-2.566;2023-04-05T14:51:51;15.70;;;11.10;;
10491;SDS011;5293;51.464;-2.566;2023-04-05T14:54:16;17.40;;;12.10;;
10491;SDS011;5293;51.464;-2.566;2023-04-05T14:56:42;16.17;;;10.70;;
10491;SDS011;5293;51.464;-2.566;2023-04-05T14:59:08;19.17;;;10.67;;
10491;SDS011;5293;51.464;-2.566;2023-04-05T15:01:34;14.90;;;10.27;;